Time;durP1;ratioP1;P1;durP2;ratioP2;P2;SDS_P1;SDS_P2;PMS_P1;PMS_P2;Temp;Humidity;BMP_temperature;BMP_pressure;BME280_temperature;BME280_humidity;BME280_pressure;Samples;Min_cycle;Max_cycle;Signal;HPM_P1;HPM_P2
2023/07/30 00:02:16;;;;;;;23.47;7.40;;;16.60;99.90;;;;;;5093159;28;20044;-59
2023/07/30 00:04:42;;;;;;;25.35;6.88;;;16.60;99.90;;;;;;5092978;28;20040;-60
2023/07/30 00:07:07;;;;;;;18.58;6.03;;;16.60;99.90;;;;;;5093175;28;20039;-59
2023/07/30 00:09:33;;;;;;;20.77;6.10;;;16.50;99.90;;;;;;5091368;28;20040;-58
2023/07/30 00:11:58;;;;;;;18.33;7.40;;;16.60;99.90;;;;;;5093003;28;20035;-61
2023/07/30 00:14:24;;;;;;;16.60;6.47;;;16.60;99.90;;;;;;5092947;28;20040;-59
2023/07/30 00:16:50;;;;;;;20.42;7.53;;;16.60;99.90;;;;;;5092850;28;20497;-59
2023/07/30 00:19:15;;;;;;;22.25;6.43;;;16.50;99.90;;;;;;5092882;28;20044;-58
2023/07/30 00:21:45;;;;;;;16.80;6.18;;;16.50;99.90;;;;;;5092435;28;20382;-59
2023/07/30 00:24:11;;;;;;;17.98;5.55;;;16.50;99.90;;;;;;5092629;28;20048;-59
2023/07/30 00:26:38;;;;;;;13.52;4.88;;;16.40;99.90;;;;;;5091594;28;20169;-58
2023/07/30 00:29:04;;;;;;;20.80;5.82;;;16.40;99.90;;;;;;5092276;28;20059;-59
2023/07/30 00:31:29;;;;;;;17.42;6.38;;;16.40;99.90;;;;;;5092195;28;20044;-59
2023/07/30 00:33:55;;;;;;;16.05;5.75;;;16.30;99.90;;;;;;5092396;28;20043;-59
2023/07/30 00:36:21;;;;;;;17.75;5.65;;;16.40;99.90;;;;;;5092757;28;20390;-59
2023/07/30 00:38:46;;;;;;;20.83;6.88;;;16.30;99.90;;;;;;5092106;28;20044;-59
2023/07/30 00:41:12;;;;;;;18.85;6.10;;;16.30;99.90;;;;;;5092344;28;20040;-59
2023/07/30 00:43:38;;;;;;;14.05;6.45;;;16.30;99.90;;;;;;5096581;28;20052;-59
2023/07/30 00:46:03;;;;;;;15.43;6.40;;;16.30;99.90;;;;;;5112967;28;20150;-59
2023/07/30 00:48:30;;;;;;;16.80;5.80;;;16.20;99.90;;;;;;5112632;28;20389;-59
2023/07/30 00:50:56;;;;;;;22.65;6.22;;;16.20;99.90;;;;;;5112437;28;20089;-59
2023/07/30 00:53:25;;;;;;;15.52;5.78;;;16.20;99.90;;;;;;5112282;28;20389;-59
2023/07/30 00:55:51;;;;;;;18.73;6.53;;;16.20;99.90;;;;;;5112430;28;20144;-59
2023/07/30 00:58:18;;;;;;;21.52;6.20;;;16.20;99.90;;;;;;5112398;28;20119;-59
2023/07/30 01:00:44;;;;;;;15.98;5.65;;;16.20;99.90;;;;;;5112223;28;20047;-59
2023/07/30 01:03:10;;;;;;;20.50;6.25;;;16.10;99.90;;;;;;5112189;28;20036;-59
2023/07/30 01:05:36;;;;;;;15.35;6.25;;;16.10;99.90;;;;;;5112346;28;20039;-59
2023/07/30 01:08:02;;;;;;;19.33;6.30;;;16.10;99.90;;;;;;5112351;28;20508;-59
2023/07/30 01:10:30;;;;;;;15.63;5.50;;;16.10;99.90;;;;;;5111992;28;20569;-60
2023/07/30 01:12:56;;;;;;;20.65;7.22;;;16.10;99.90;;;;;;5112210;28;20124;-60
2023/07/30 01:15:22;;;;;;;17.15;6.28;;;16.10;99.90;;;;;;5112238;28;20039;-58
2023/07/30 01:17:48;;;;;;;16.08;5.40;;;16.10;99.90;;;;;;5112040;28;20378;-59
2023/07/30 01:20:14;;;;;;;15.82;5.05;;;16.20;99.90;;;;;;5112019;28;20075;-59
2023/07/30 01:22:39;;;;;;;16.20;5.22;;;16.10;99.90;;;;;;5112841;28;20059;-59
2023/07/30 01:25:06;;;;;;;17.15;5.78;;;16.20;99.90;;;;;;5116044;28;20042;-59
2023/07/30 01:27:36;;;;;;;14.23;5.85;;;16.30;99.90;;;;;;5116188;28;20812;-59
2023/07/30 01:30:27;;;;;;;17.90;5.47;;;16.20;99.90;;;;;;5115799;28;20119;-59
2023/07/30 01:32:54;;;;;;;13.93;5.50;;;16.20;99.90;;;;;;5088140;28;20039;-59
2023/07/30 01:35:27;;;;;;;23.40;5.68;;;16.20;99.90;;;;;;5115977;28;20050;-59
2023/07/30 01:37:53;;;;;;;15.00;5.75;;;16.30;99.90;;;;;;5116220;28;20078;-59
2023/07/30 01:40:20;;;;;;;20.70;5.30;;;16.20;99.90;;;;;;5116076;28;20114;-59
2023/07/30 01:42:46;;;;;;;18.33;5.35;;;16.30;99.90;;;;;;5115813;28;20114;-59
2023/07/30 01:45:11;;;;;;;16.33;6.03;;;16.30;99.90;;;;;;5115975;28;20134;-59
2023/07/30 01:47:37;;;;;;;22.05;6.55;;;16.20;99.90;;;;;;5115837;28;20042;-59
2023/07/30 01:50:03;;;;;;;24.15;6.25;;;16.20;99.90;;;;;;5115722;28;20038;-60
2023/07/30 01:52:29;;;;;;;25.35;6.05;;;16.20;99.90;;;;;;5115596;28;20040;-59
2023/07/30 01:54:56;;;;;;;14.68;5.53;;;16.20;99.90;;;;;;5115371;28;20046;-60
2023/07/30 01:57:21;;;;;;;20.65;6.07;;;16.30;99.90;;;;;;5114340;28;20054;-60
2023/07/30 01:59:47;;;;;;;19.73;5.28;;;16.30;99.90;;;;;;5115507;28;20398;-59
2023/07/30 02:02:13;;;;;;;17.80;5.75;;;16.40;99.90;;;;;;5115578;27;20119;-60
2023/07/30 02:04:38;;;;;;;18.77;6.05;;;16.40;99.90;;;;;;5115129;28;20036;-59
2023/07/30 02:07:04;;;;;;;20.17;6.40;;;16.40;99.90;;;;;;5115187;28;20032;-60
2023/07/30 02:09:29;;;;;;;23.60;5.68;;;16.40;99.90;;;;;;5115440;28;20043;-60
2023/07/30 02:11:55;;;;;;;24.42;6.30;;;16.40;99.90;;;;;;5115088;28;20035;-59
2023/07/30 02:14:21;;;;;;;19.45;6.35;;;16.40;99.90;;;;;;5115471;28;20046;-58
2023/07/30 02:16:46;;;;;;;19.75;5.78;;;16.40;99.90;;;;;;5115225;28;20047;-59
2023/07/30 02:19:12;;;;;;;22.80;6.95;;;16.40;99.90;;;;;;5115045;28;20050;-59
2023/07/30 02:21:42;;;;;;;17.13;5.50;;;16.30;99.90;;;;;;5115168;28;20122;-59
2023/07/30 02:24:11;;;;;;;22.85;5.57;;;16.40;99.90;;;;;;5114992;28;20039;-59
2023/07/30 02:26:40;;;;;;;25.27;6.13;;;16.50;99.90;;;;;;5113737;28;20050;-59
2023/07/30 02:29:06;;;;;;;;;;;16.40;99.90;;;;;;5115732;28;20071;-59
2023/07/30 02:31:32;;;;;;;21.00;6.00;;;16.40;99.90;;;;;;5113548;28;19992;-59
2023/07/30 02:33:57;;;;;;;17.55;5.82;;;16.50;99.90;;;;;;5112934;28;20416;-58
2023/07/30 02:36:24;;;;;;;19.77;6.00;;;16.50;99.90;;;;;;5113781;28;20116;-58
2023/07/30 02:38:49;;;;;;;21.60;6.05;;;16.50;99.90;;;;;;5113613;28;20039;-58
2023/07/30 02:41:18;;;;;;;21.17;6.32;;;16.40;99.90;;;;;;5113592;28;20062;-58
2023/07/30 02:43:43;;;;;;;18.08;6.07;;;16.40;99.90;;;;;;5113229;28;20489;-58
2023/07/30 02:46:09;;;;;;;22.40;6.38;;;16.40;99.90;;;;;;5113493;28;20049;-59
2023/07/30 02:48:35;;;;;;;18.05;5.97;;;16.40;99.90;;;;;;5113647;28;20035;-59
2023/07/30 02:51:00;;;;;;;21.88;5.93;;;16.30;99.90;;;;;;5113423;28;20047;-59
2023/07/30 02:53:26;;;;;;;21.17;6.03;;;16.30;99.90;;;;;;5112258;28;20385;-59
2023/07/30 02:55:52;;;;;;;25.85;6.95;;;16.40;99.90;;;;;;5113391;28;20527;-59
2023/07/30 02:58:18;;;;;;;19.95;5.85;;;16.30;99.90;;;;;;5113056;28;20043;-58
2023/07/30 03:00:43;;;;;;;22.92;6.43;;;16.20;99.90;;;;;;5113275;28;20039;-60
2023/07/30 03:03:09;;;;;;;21.63;5.47;;;16.30;99.90;;;;;;5112908;28;20507;-60
2023/07/30 03:05:34;;;;;;;21.98;5.25;;;16.20;99.90;;;;;;5112024;28;20040;-59
2023/07/30 03:08:00;;;;;;;27.20;5.85;;;16.20;99.90;;;;;;5112735;28;20031;-59
2023/07/30 03:10:26;;;;;;;25.33;5.60;;;16.20;99.90;;;;;;5113262;28;20067;-59
2023/07/30 03:12:51;;;;;;;25.05;5.65;;;16.20;99.90;;;;;;5113138;28;20047;-60
2023/07/30 03:15:17;;;;;;;19.42;5.50;;;16.20;99.90;;;;;;5111584;28;20617;-59
2023/07/30 03:17:43;;;;;;;19.42;5.35;;;16.20;99.90;;;;;;5113186;28;20039;-60
2023/07/30 03:20:08;;;;;;;21.98;6.82;;;16.10;99.90;;;;;;5112897;28;20470;-60
2023/07/30 03:22:34;;;;;;;20.33;5.28;;;16.20;99.90;;;;;;5113111;28;20046;-60
2023/07/30 03:25:00;;;;;;;18.95;4.93;;;16.20;99.90;;;;;;5113074;28;20075;-60
2023/07/30 03:27:26;;;;;;;20.08;5.45;;;16.20;99.90;;;;;;5113088;28;20155;-60
2023/07/30 03:29:51;;;;;;;18.52;5.47;;;16.10;99.90;;;;;;5073907;28;1102090;-60
2023/07/30 03:32:17;;;;;;;21.17;5.63;;;16.10;99.90;;;;;;5113657;28;20043;-60
2023/07/30 03:34:42;;;;;;;24.40;5.20;;;16.10;99.90;;;;;;5114199;28;20044;-60
2023/07/30 03:37:08;;;;;;;19.17;4.75;;;16.00;99.90;;;;;;5113765;28;20047;-59
2023/07/30 03:39:34;;;;;;;22.90;5.43;;;16.00;99.90;;;;;;5114055;28;20122;-59
2023/07/30 03:42:00;;;;;;;22.17;5.75;;;15.90;99.90;;;;;;5113430;28;20039;-59
2023/07/30 03:44:25;;;;;;;23.45;4.93;;;16.00;99.90;;;;;;5112897;28;20039;-60
2023/07/30 03:46:51;;;;;;;19.70;4.70;;;16.00;99.90;;;;;;5113443;28;20077;-60
2023/07/30 03:49:16;;;;;;;20.25;5.25;;;15.90;99.90;;;;;;5113697;28;20034;-60
2023/07/30 03:51:42;;;;;;;21.77;5.05;;;15.90;99.90;;;;;;5113441;28;20447;-59
2023/07/30 03:54:08;;;;;;;24.60;5.82;;;16.00;99.90;;;;;;5113915;28;20046;-60
2023/07/30 03:56:36;;;;;;;26.40;5.70;;;16.00;99.90;;;;;;5113212;28;20533;-60
2023/07/30 03:59:02;;;;;;;23.52;5.60;;;15.90;99.90;;;;;;5113422;28;20039;-59
2023/07/30 04:01:29;;;;;;;16.77;5.80;;;15.90;99.90;;;;;;5113069;28;20093;-59
2023/07/30 04:03:54;;;;;;;20.75;4.75;;;15.90;99.90;;;;;;5113344;28;20461;-60
2023/07/30 04:06:20;;;;;;;26.80;5.97;;;15.90;99.90;;;;;;5112852;28;20039;-59
2023/07/30 04:08:45;;;;;;;20.52;5.07;;;15.90;99.90;;;;;;5113293;28;20043;-59
2023/07/30 04:11:11;;;;;;;19.40;4.72;;;15.90;99.90;;;;;;5114164;28;20097;-59
2023/07/30 04:13:37;;;;;;;18.48;5.68;;;16.00;99.90;;;;;;5113689;28;20076;-59
2023/07/30 04:16:03;;;;;;;32.03;5.63;;;15.90;99.90;;;;;;5113921;28;20160;-60
2023/07/30 04:18:28;;;;;;;20.10;5.25;;;15.90;99.90;;;;;;5113759;28;20111;-59
2023/07/30 04:20:55;;;;;;;25.85;5.70;;;15.90;99.90;;;;;;5113546;28;20078;-59
2023/07/30 04:23:21;;;;;;;22.42;4.43;;;16.00;99.90;;;;;;5113279;28;20044;-59
2023/07/30 04:25:49;;;;;;;17.00;4.68;;;16.00;99.90;;;;;;5113408;28;20394;-59
2023/07/30 04:28:15;;;;;;;21.42;5.45;;;15.90;99.90;;;;;;5112155;28;20462;-59
2023/07/30 04:30:41;;;;;;;16.65;4.47;;;16.00;99.90;;;;;;5113218;28;20059;-59
2023/07/30 04:33:06;;;;;;;17.13;5.07;;;16.00;99.90;;;;;;5113353;28;20389;-59
2023/07/30 04:35:32;;;;;;;20.83;5.38;;;16.00;99.90;;;;;;5113337;28;20035;-59
2023/07/30 04:37:57;;;;;;;18.77;4.65;;;16.00;99.90;;;;;;5113179;28;20035;-59
2023/07/30 04:40:23;;;;;;;22.42;5.53;;;16.10;99.90;;;;;;5112967;28;20455;-58
2023/07/30 04:42:49;;;;;;;26.00;5.18;;;16.00;99.90;;;;;;5112270;28;20047;-58
2023/07/30 04:45:14;;;;;;;17.40;4.28;;;16.10;99.90;;;;;;5112794;28;20043;-59
2023/07/30 04:47:40;;;;;;;14.52;4.88;;;16.10;99.90;;;;;;5113098;28;20055;-58
2023/07/30 04:50:06;;;;;;;21.13;5.05;;;16.20;99.90;;;;;;5113065;28;20067;-58
2023/07/30 04:52:31;;;;;;;20.88;5.03;;;16.10;99.90;;;;;;5113066;28;20111;-59
2023/07/30 04:54:57;;;;;;;19.83;4.72;;;16.30;99.90;;;;;;5113073;28;20466;-59
2023/07/30 04:57:23;;;;;;;23.08;5.00;;;16.30;99.90;;;;;;5113162;28;20131;-59
2023/07/30 04:59:48;;;;;;;25.35;6.00;;;16.40;99.90;;;;;;5112631;28;20032;-59
2023/07/30 05:02:14;;;;;;;21.55;4.97;;;16.40;99.90;;;;;;5113195;28;20122;-59
2023/07/30 05:04:40;;;;;;;20.90;5.22;;;16.30;99.90;;;;;;5112511;28;20398;-59
2023/07/30 05:07:05;;;;;;;19.05;5.03;;;16.40;99.90;;;;;;5113161;28;20099;-59
2023/07/30 05:09:31;;;;;;;20.20;4.45;;;16.40;99.90;;;;;;5113004;28;20036;-58
2023/07/30 05:11:57;;;;;;;20.88;6.00;;;16.40;99.90;;;;;;5111589;28;20032;-59
2023/07/30 05:14:22;;;;;;;17.05;4.95;;;16.50;99.90;;;;;;5113117;28;20415;-59
2023/07/30 05:16:48;;;;;;;19.05;4.20;;;16.50;99.90;;;;;;5112588;28;20044;-58
2023/07/30 05:19:13;;;;;;;19.80;4.82;;;16.50;99.90;;;;;;5113205;28;20048;-59
2023/07/30 05:21:39;;;;;;;17.40;4.70;;;16.50;99.90;;;;;;5111662;28;20113;-58
2023/07/30 05:24:05;;;;;;;17.52;4.80;;;16.50;99.90;;;;;;5112543;28;20367;-59
2023/07/30 05:26:30;;;;;;;15.55;3.88;;;16.50;99.90;;;;;;5112716;28;20118;-58
2023/07/30 05:28:56;;;;;;;19.02;4.50;;;16.60;99.90;;;;;;5112500;28;20034;-59
2023/07/30 05:31:21;;;;;;;15.77;4.30;;;16.50;99.90;;;;;;5112716;28;20481;-58
2023/07/30 05:33:47;;;;;;;17.42;3.83;;;16.50;99.90;;;;;;5112619;28;20497;-59
2023/07/30 05:36:13;;;;;;;16.98;3.33;;;16.60;99.90;;;;;;5113048;28;20035;-58
2023/07/30 05:38:38;;;;;;;12.35;3.55;;;16.60;99.90;;;;;;5112392;28;20039;-59
2023/07/30 05:41:04;;;;;;;16.52;4.00;;;16.70;99.90;;;;;;5112923;28;20036;-59
2023/07/30 05:43:30;;;;;;;17.38;3.40;;;16.80;99.90;;;;;;5112691;28;20032;-59
2023/07/30 05:45:55;;;;;;;14.32;3.88;;;16.90;99.90;;;;;;5112462;28;20054;-59
2023/07/30 05:48:21;;;;;;;22.10;4.60;;;16.90;99.90;;;;;;5112588;28;20536;-59
2023/07/30 05:50:46;;;;;;;16.58;4.22;;;17.00;99.90;;;;;;5112168;28;20501;-60
2023/07/30 05:53:12;;;;;;;21.02;4.22;;;17.00;99.90;;;;;;5112316;28;20115;-60
2023/07/30 05:55:38;;;;;;;19.55;4.00;;;17.10;99.90;;;;;;5112392;28;20043;-59
2023/07/30 05:58:03;;;;;;;17.90;3.83;;;17.10;99.90;;;;;;5112216;28;20431;-59
2023/07/30 06:00:29;;;;;;;20.30;3.90;;;17.10;99.90;;;;;;5112375;28;20039;-60
2023/07/30 06:02:55;;;;;;;17.52;4.35;;;17.20;99.90;;;;;;5112186;28;20051;-59
2023/07/30 06:05:21;;;;;;;12.68;3.38;;;17.20;99.90;;;;;;5112253;28;20039;-60
2023/07/30 06:07:46;;;;;;;19.23;4.22;;;17.20;99.90;;;;;;5113306;28;20058;-58
2023/07/30 06:10:12;;;;;;;21.30;3.55;;;17.20;99.90;;;;;;5115972;28;20031;-58
2023/07/30 06:12:38;;;;;;;13.52;3.30;;;17.20;99.90;;;;;;5116115;28;20051;-59
2023/07/30 06:15:06;;;;;;;28.27;5.15;;;17.30;99.90;;;;;;5116091;28;20385;-59
2023/07/30 06:17:31;;;;;;;10.48;3.72;;;17.30;99.90;;;;;;5116147;28;20039;-59
2023/07/30 06:19:57;;;;;;;20.00;5.30;;;17.40;99.90;;;;;;5115902;28;20046;-59
2023/07/30 06:22:23;;;;;;;17.20;3.78;;;17.40;99.90;;;;;;5115687;28;20393;-59
2023/07/30 06:24:48;;;;;;;17.83;3.97;;;17.40;99.90;;;;;;5115762;28;20035;-59
2023/07/30 06:27:14;;;;;;;21.15;3.63;;;17.40;99.90;;;;;;5115471;28;20061;-58
2023/07/30 06:29:40;;;;;;;14.30;2.90;;;17.40;99.90;;;;;;5115589;28;20088;-57
2023/07/30 06:32:06;;;;;;;14.93;4.03;;;17.50;99.90;;;;;;5115599;27;20051;-59
2023/07/30 06:34:31;;;;;;;12.60;3.25;;;17.40;99.90;;;;;;5115598;28;20036;-60
2023/07/30 06:36:57;;;;;;;18.75;3.30;;;17.50;99.90;;;;;;5115349;28;20065;-59
2023/07/30 06:39:23;;;;;;;15.25;3.60;;;17.50;99.90;;;;;;5115898;27;20039;-59
2023/07/30 06:41:48;;;;;;;22.02;3.17;;;17.60;99.90;;;;;;5115480;27;20028;-59
2023/07/30 06:44:14;;;;;;;14.38;3.88;;;17.60;99.90;;;;;;5115339;28;20043;-60
2023/07/30 06:46:40;;;;;;;18.42;4.13;;;17.70;99.90;;;;;;5115374;28;20028;-60
2023/07/30 06:49:05;;;;;;;14.00;3.95;;;17.70;99.90;;;;;;5115083;28;20067;-58
2023/07/30 06:51:31;;;;;;;17.80;3.63;;;17.70;99.90;;;;;;5113743;28;20546;-58
2023/07/30 06:53:57;;;;;;;12.70;3.30;;;17.70;99.90;;;;;;5115619;27;20123;-58
2023/07/30 06:56:22;;;;;;;18.70;3.83;;;17.70;99.90;;;;;;5115275;28;20032;-59
2023/07/30 06:58:48;;;;;;;17.45;3.80;;;17.80;99.90;;;;;;5115304;28;20482;-58
2023/07/30 07:01:14;;;;;;;18.75;3.40;;;18.00;99.90;;;;;;5115170;28;20035;-59
2023/07/30 07:03:39;;;;;;;24.27;4.07;;;18.10;99.90;;;;;;5114967;28;20144;-58
2023/07/30 07:06:05;;;;;;;15.57;3.42;;;18.20;99.90;;;;;;5114924;28;20039;-59
2023/07/30 07:08:31;;;;;;;10.50;3.03;;;18.30;99.90;;;;;;5113677;28;20102;-59
2023/07/30 07:10:56;;;;;;;15.00;3.53;;;18.30;99.90;;;;;;5114835;28;20039;-59
2023/07/30 07:13:22;;;;;;;16.63;3.50;;;18.40;99.90;;;;;;5114722;28;20173;-60
2023/07/30 07:15:48;;;;;;;16.75;3.88;;;18.50;99.90;;;;;;5115078;28;20393;-59
2023/07/30 07:18:13;;;;;;;10.88;2.67;;;18.60;99.90;;;;;;5114942;28;20556;-60
2023/07/30 07:20:39;;;;;;;14.52;3.60;;;18.70;99.90;;;;;;5114095;28;20043;-59
2023/07/30 07:23:05;;;;;;;16.48;4.30;;;18.80;99.90;;;;;;5114691;28;20040;-58
2023/07/30 07:25:30;;;;;;;11.50;3.40;;;19.10;99.90;;;;;;5114444;28;20091;-59
2023/07/30 07:27:56;;;;;;;10.32;2.75;;;19.20;99.90;;;;;;5114800;28;20035;-58
2023/07/30 07:30:22;;;;;;;15.55;2.60;;;19.60;99.90;;;;;;5114815;28;20069;-59
2023/07/30 07:32:50;;;;;;;11.77;2.78;;;19.90;99.90;;;;;;5115212;28;20363;-58
2023/07/30 07:35:20;;;;;;;11.20;2.65;;;20.10;99.90;;;;;;5114724;28;20118;-58
2023/07/30 07:37:45;;;;;;;12.45;2.58;;;20.20;99.90;;;;;;5114818;28;20046;-59
2023/07/30 07:40:11;;;;;;;10.88;1.90;;;20.40;99.90;;;;;;5114505;28;20036;-59
2023/07/30 07:42:38;;;;;;;13.80;2.75;;;20.60;99.90;;;;;;5114714;28;20042;-60
2023/07/30 07:45:06;;;;;;;11.45;2.60;;;20.70;99.90;;;;;;5114996;28;20048;-59
2023/07/30 07:47:31;;;;;;;11.52;2.15;;;20.80;99.90;;;;;;5114196;27;20040;-59
2023/07/30 07:49:57;;;;;;;13.73;2.80;;;21.10;99.90;;;;;;5114545;28;20133;-59
2023/07/30 07:52:22;;;;;;;11.32;2.58;;;21.20;99.90;;;;;;5114564;28;20100;-59
2023/07/30 07:54:48;;;;;;;14.15;2.22;;;21.00;99.90;;;;;;5114289;28;20039;-60
2023/07/30 07:57:14;;;;;;;12.60;2.17;;;20.70;99.90;;;;;;5114230;28;20099;-60
2023/07/30 07:59:41;;;;;;;11.27;2.55;;;20.40;99.90;;;;;;5113964;28;20446;-59
2023/07/30 08:02:07;;;;;;;11.65;2.90;;;20.10;99.90;;;;;;5114483;28;20055;-60
2023/07/30 08:04:33;;;;;;;10.50;2.33;;;19.80;99.90;;;;;;5114022;28;20389;-60
2023/07/30 08:07:03;;;;;;;13.38;2.58;;;19.70;99.90;;;;;;5114388;28;20049;-59
2023/07/30 08:09:29;;;;;;;10.30;2.08;;;19.50;99.90;;;;;;5113108;28;20031;-59
2023/07/30 08:11:54;;;;;;;10.02;2.75;;;19.40;99.90;;;;;;5113643;28;20054;-59
2023/07/30 08:14:20;;;;;;;12.60;2.60;;;19.30;99.90;;;;;;5113900;28;20039;-58
2023/07/30 08:16:45;;;;;;;9.80;2.10;;;19.20;99.90;;;;;;5095852;28;20083;-59
2023/07/30 08:19:11;;;;;;;10.95;2.45;;;19.10;99.90;;;;;;5113908;28;20511;-59
2023/07/30 08:21:37;;;;;;;13.43;3.75;;;19.00;99.90;;;;;;5112701;27;20047;-59
2023/07/30 08:24:03;;;;;;;13.55;2.53;;;19.00;99.90;;;;;;5113329;28;20040;-59
2023/07/30 08:26:28;;;;;;;10.82;2.83;;;19.00;99.90;;;;;;5113851;28;20070;-59
2023/07/30 08:28:54;;;;;;;10.98;2.15;;;18.90;99.90;;;;;;5113296;28;20027;-58
2023/07/30 08:31:20;;;;;;;15.35;3.00;;;18.90;99.90;;;;;;5113259;28;20043;-59
2023/07/30 08:33:45;;;;;;;11.68;2.28;;;18.90;99.90;;;;;;5113543;28;20035;-58
2023/07/30 08:36:11;;;;;;;14.13;2.65;;;18.90;99.90;;;;;;5113791;28;20036;-59
2023/07/30 08:38:37;;;;;;;8.45;1.90;;;18.90;99.90;;;;;;5113403;28;20067;-59
2023/07/30 08:41:02;;;;;;;8.55;1.73;;;18.90;99.90;;;;;;5112547;28;20059;-60
2023/07/30 08:43:29;;;;;;;9.88;2.17;;;18.80;99.90;;;;;;5113737;28;20148;-59
2023/07/30 08:45:54;;;;;;;12.88;2.88;;;18.80;99.90;;;;;;5113354;28;20127;-59
2023/07/30 08:48:20;;;;;;;14.70;2.45;;;18.80;99.90;;;;;;5113777;28;20114;-59
2023/07/30 08:50:47;;;;;;;8.45;2.10;;;18.80;99.90;;;;;;5113356;28;20470;-60
2023/07/30 08:53:13;;;;;;;12.10;1.98;;;18.80;99.90;;;;;;5113319;28;20157;-59
2023/07/30 08:55:40;;;;;;;17.33;2.90;;;18.90;99.90;;;;;;5113257;28;20054;-60
2023/07/30 08:58:07;;;;;;;10.82;2.08;;;18.90;99.90;;;;;;5113447;28;20040;-59
2023/07/30 09:00:36;;;;;;;9.38;2.20;;;19.10;99.90;;;;;;5111977;28;20036;-60
2023/07/30 09:03:04;;;;;;;10.90;2.60;;;19.20;99.90;;;;;;5113387;28;20115;-59
2023/07/30 09:05:30;;;;;;;9.60;2.00;;;19.50;99.90;;;;;;5113011;28;20493;-59
2023/07/30 09:07:56;;;;;;;6.65;1.67;;;19.80;99.90;;;;;;5113257;28;20269;-59
2023/07/30 09:10:22;;;;;;;9.75;1.95;;;19.90;99.90;;;;;;5113612;28;20084;-59
2023/07/30 09:12:57;;;;;;;13.35;2.53;;;19.90;99.90;;;;;;5113250;28;20036;-59
2023/07/30 09:15:37;;;;;;;12.60;2.67;;;19.80;99.90;;;;;;5113068;28;20497;-58
2023/07/30 09:18:08;;;;;;;12.55;2.55;;;19.70;99.90;;;;;;5113369;28;20043;-60
2023/07/30 09:20:41;;;;;;;9.88;1.73;;;19.50;99.90;;;;;;5113335;28;20054;-59
2023/07/30 09:23:08;;;;;;;8.95;1.90;;;19.40;99.90;;;;;;5112960;28;20069;-59
2023/07/30 09:25:34;;;;;;;14.48;2.35;;;19.30;99.90;;;;;;5112540;28;20035;-60
2023/07/30 09:28:00;;;;;;;9.07;1.65;;;19.20;99.90;;;;;;5112983;28;20036;-59
2023/07/30 09:30:29;;;;;;;13.10;2.45;;;19.10;99.90;;;;;;5112761;28;20370;-59
2023/07/30 09:32:57;;;;;;;10.60;1.85;;;19.10;99.90;;;;;;5113287;28;20110;-59
2023/07/30 09:35:24;;;;;;;6.70;1.95;;;19.00;99.90;;;;;;5113453;28;20069;-58
2023/07/30 09:37:57;;;;;;;7.13;1.60;;;19.00;99.90;;;;;;5113213;28;20043;-58
2023/07/30 09:40:31;;;;;;;8.57;1.88;;;19.00;99.90;;;;;;5111578;28;20464;-57
2023/07/30 09:42:57;;;;;;;8.52;1.58;;;18.90;99.90;;;;;;5113600;28;20043;-58
2023/07/30 09:45:25;;;;;;;8.43;1.58;;;18.90;99.90;;;;;;5115544;28;20039;-59
2023/07/30 09:47:53;;;;;;;6.63;1.67;;;18.90;99.90;;;;;;5105452;28;20032;-59
2023/07/30 09:50:19;;;;;;;8.73;1.50;;;18.90;99.90;;;;;;5116672;28;20115;-59
2023/07/30 09:52:45;;;;;;;7.90;1.70;;;19.00;99.90;;;;;;5111657;28;20123;-58
2023/07/30 09:55:11;;;;;;;6.22;1.75;;;19.00;99.90;;;;;;5116458;28;20039;-59
2023/07/30 09:57:38;;;;;;;7.38;1.67;;;19.20;99.90;;;;;;5112529;28;20115;-59
2023/07/30 10:00:06;;;;;;;6.85;1.08;;;19.20;99.90;;;;;;5115323;28;20477;-60
2023/07/30 10:02:35;;;;;;;7.38;1.38;;;19.30;99.90;;;;;;5116309;28;20038;-58
2023/07/30 10:05:03;;;;;;;5.82;1.48;;;19.30;99.90;;;;;;5116665;28;20074;-59
2023/07/30 10:07:29;;;;;;;8.40;1.93;;;19.30;99.90;;;;;;5116554;28;20047;-59
2023/07/30 10:09:58;;;;;;;5.85;1.40;;;19.20;99.90;;;;;;5116536;28;20090;-59
2023/07/30 10:12:28;;;;;;;;;;;19.40;99.90;;;;;;5116785;28;20401;-59
2023/07/30 10:14:54;;;;;;;7.40;1.60;;;19.40;99.90;;;;;;5116134;28;19920;-59
2023/07/30 10:17:20;;;;;;;9.65;2.17;;;19.50;99.90;;;;;;5115232;28;20419;-59
2023/07/30 10:19:49;;;;;;;5.28;1.40;;;19.90;99.90;;;;;;5116215;27;20114;-58
2023/07/30 10:22:18;;;;;;;8.40;1.60;;;20.20;99.90;;;;;;5112910;28;20028;-59
2023/07/30 10:24:57;;;;;;;6.75;1.48;;;20.50;99.90;;;;;;5107803;28;20040;-58
2023/07/30 10:27:25;;;;;;;4.97;1.30;;;20.90;99.90;;;;;;5112095;28;20157;-59
2023/07/30 10:30:09;;;;;;;4.80;1.50;;;21.20;99.90;;;;;;5107617;28;20036;-60
2023/07/30 10:33:08;;;;;;;8.65;1.55;;;21.10;99.90;;;;;;5115856;28;20046;-59
2023/07/30 10:35:42;;;;;;;8.43;2.53;;;20.80;99.90;;;;;;5115990;28;20043;-61
2023/07/30 10:38:20;;;;;;;9.13;1.98;;;20.50;99.90;;;;;;5113910;28;20047;-60
2023/07/30 10:41:13;;;;;;;9.20;2.13;;;20.00;99.90;;;;;;5113800;28;20504;-60
2023/07/30 10:43:41;;;;;;;11.15;2.45;;;19.60;99.90;;;;;;5114646;28;20498;-60
2023/07/30 10:46:12;;;;;;;7.45;2.20;;;19.20;99.90;;;;;;5115400;28;20068;-60
2023/07/30 10:48:43;;;;;;;8.18;2.30;;;19.40;99.90;;;;;;5115480;28;20039;-60
2023/07/30 10:51:14;;;;;;;7.65;2.13;;;19.60;99.90;;;;;;5115322;28;20023;-61
2023/07/30 10:53:48;;;;;;;6.53;2.08;;;19.60;99.90;;;;;;5109062;28;20071;-60
2023/07/30 10:56:16;;;;;;;9.05;2.42;;;19.60;99.90;;;;;;5115547;28;20051;-61
2023/07/30 10:58:42;;;;;;;;;;;19.50;99.90;;;;;;5109949;28;20047;-61
2023/07/30 11:01:09;;;;;;;9.70;1.88;;;19.70;99.90;;;;;;5115497;28;19916;-61
2023/07/30 11:03:36;;;;;;;7.22;2.30;;;20.10;99.90;;;;;;5115419;28;20512;-60
2023/07/30 11:06:02;;;;;;;9.95;2.05;;;20.30;99.90;;;;;;5115568;28;20499;-60
2023/07/30 11:08:40;;;;;;;7.55;1.67;;;20.70;99.90;;;;;;5114881;28;20469;-60
2023/07/30 11:11:08;;;;;;;14.02;2.60;;;20.80;99.90;;;;;;5115074;28;20494;-60
2023/07/30 11:13:41;;;;;;;6.78;2.22;;;20.90;99.90;;;;;;5115016;28;20465;-60
2023/07/30 11:16:10;;;;;;;7.78;1.85;;;20.90;99.90;;;;;;5114999;28;20165;-60
2023/07/30 11:18:37;;;;;;;9.73;2.53;;;21.10;99.90;;;;;;5113549;28;20118;-61
2023/07/30 11:21:12;;;;;;;12.35;2.60;;;21.30;99.90;;;;;;5114554;28;20115;-59
2023/07/30 11:23:39;;;;;;;10.00;2.08;;;21.50;99.90;;;;;;5110364;28;20116;-59
2023/07/30 11:26:07;;;;;;;9.07;1.90;;;21.70;99.90;;;;;;5113519;28;20122;-59
2023/07/30 11:28:37;;;;;;;8.97;1.93;;;21.80;99.90;;;;;;5102017;28;20040;-59
2023/07/30 11:31:08;;;;;;;6.07;1.80;;;21.90;99.90;;;;;;5114339;28;20058;-59
2023/07/30 11:33:40;;;;;;;5.65;1.70;;;21.90;99.90;;;;;;5114102;27;20062;-59
2023/07/30 11:36:07;;;;;;;12.57;2.60;;;21.80;99.90;;;;;;5114424;28;20047;-59
2023/07/30 11:38:34;;;;;;;10.02;2.13;;;21.70;99.90;;;;;;5098502;28;20040;-58
2023/07/30 11:41:00;;;;;;;12.60;2.22;;;21.60;99.90;;;;;;5113953;28;20039;-57
2023/07/30 11:43:26;;;;;;;9.15;2.28;;;21.40;99.90;;;;;;5114021;28;20035;-59
2023/07/30 11:46:24;;;;;;;7.15;1.98;;;21.40;99.90;;;;;;5113953;28;20027;-59
2023/07/30 11:48:52;;;;;;;13.60;2.03;;;21.60;99.90;;;;;;5091302;28;20105;-61
2023/07/30 11:51:21;;;;;;;14.55;3.08;;;21.70;99.90;;;;;;5091504;28;20051;-59
2023/07/30 11:53:56;;;;;;;9.43;2.03;;;21.90;99.90;;;;;;5081224;28;20032;-60
2023/07/30 11:56:31;;;;;;;9.32;2.17;;;22.10;99.90;;;;;;5079387;28;20143;-58
2023/07/30 11:58:58;;;;;;;16.52;2.15;;;22.20;99.90;;;;;;5070909;28;20498;-59
2023/07/30 12:01:25;;;;;;;6.60;1.88;;;22.20;99.90;;;;;;5070498;28;20143;-59
2023/07/30 12:04:03;;;;;;;6.80;1.88;;;22.00;99.90;;;;;;5070894;28;20111;-59
2023/07/30 12:06:42;;;;;;;15.93;2.20;;;21.70;99.90;;;;;;5066056;28;20839;-60
2023/07/30 12:09:19;;;;;;;14.23;2.42;;;21.50;99.90;;;;;;5071062;28;20040;-59
2023/07/30 12:11:55;;;;;;;8.02;2.00;;;21.00;99.90;;;;;;5071100;28;20117;-60
2023/07/30 12:14:33;;;;;;;10.63;1.83;;;20.50;99.90;;;;;;5070608;28;20044;-60
2023/07/30 12:17:01;;;;;;;9.27;1.92;;;20.20;99.90;;;;;;5070789;28;20113;-60
2023/07/30 12:19:27;;;;;;;5.85;1.55;;;19.90;99.90;;;;;;5054163;28;20083;-60
2023/07/30 12:21:52;;;;;;;8.90;2.45;;;19.70;99.90;;;;;;5070814;28;20076;-60
2023/07/30 12:24:18;;;;;;;4.97;1.67;;;19.50;99.90;;;;;;5080861;28;20090;-60
2023/07/30 12:26:44;;;;;;;6.60;1.42;;;19.50;99.90;;;;;;5092852;28;20123;-60
2023/07/30 12:29:09;;;;;;;5.68;1.58;;;19.70;99.90;;;;;;5091607;28;20394;-59
2023/07/30 12:31:35;;;;;;;6.47;1.50;;;19.90;99.90;;;;;;5092509;28;20123;-58
2023/07/30 12:34:01;;;;;;;3.65;1.30;;;20.20;99.90;;;;;;5092756;28;20032;-58
2023/07/30 12:36:26;;;;;;;4.13;1.40;;;20.30;99.90;;;;;;5093245;28;20489;-59
2023/07/30 12:38:53;;;;;;;5.97;1.52;;;20.50;99.90;;;;;;5090343;28;20036;-59
2023/07/30 12:41:25;;;;;;;8.93;2.20;;;20.70;99.90;;;;;;5090221;28;20098;-58